This is the latest recevied weather packets stored in our database for station/object DO7ZT-10. If no packets are shown the sender has not sent any weather packets the latest 10 day(s).
| Time | Temp. | Humidity | Pressure | Rain* | Wind** | Luminosity | Snow |
|---|---|---|---|---|---|---|---|
| 1787933810 | 21.11° C | 81% | 1012.6 hPa | - | - | - | - |
| 1787932909 | 23.33° C | 67% | 1013.2 hPa | - | - | - | - |
| 1787932009 | 23.89° C | 59% | 1013.6 hPa | - | - | - | - |
| 1787931109 | 23.89° C | 59% | 1013.2 hPa | - | - | - | - |
| 1787930209 | 24.44° C | 56% | 1013.5 hPa | - | - | - | - |
| 1787929309 | 24.44° C | 57% | 1013.6 hPa | - | - | - | - |
| 1787928409 | 24.44° C | 56% | 1013.9 hPa | - | - | - | - |
| 1787927509 | 25° C | 55% | 1013.9 hPa | - | - | - | - |
| 1787926609 | 25° C | 53% | 1014 hPa | - | - | - | - |
| 1787925709 | 26.11° C | 50% | 1014.1 hPa | - | - | - | - |
| 1787924809 | 26.67° C | 48% | 1014.2 hPa | - | - | - | - |
| 1787923909 | 26.11° C | 50% | 1014 hPa | - | - | - | - |
| 1787923009 | 25° C | 49% | 1014.6 hPa | - | - | - | - |
| 1787922109 | 25.56° C | 47% | 1013 hPa | - | - | - | - |
| 1787921208 | 25.56° C | 46% | 1012.3 hPa | - | - | - | - |
| 1787920308 | 25.56° C | 45% | 1012.5 hPa | - | - | - | - |
| 1787919408 | 26.11° C | 45% | 1012.1 hPa | - | - | - | - |
| 1787918508 | 26.11° C | 45% | 1012.3 hPa | - | - | - | - |
| 1787917608 | 26.11° C | 43% | 1012.3 hPa | - | - | - | - |
| 1787916708 | 25.56° C | 45% | 1012.4 hPa | - | - | - | - |
| 1787915808 | 24.44° C | 48% | 1012.8 hPa | - | - | - | - |
| 1787914908 | 23.89° C | 48% | 1012.7 hPa | - | - | - | - |
| 1787914008 | 23.89° C | 48% | 1012.1 hPa | - | - | - | - |
| 1787913108 | 23.33° C | 49% | 1012.1 hPa | - | - | - | - |
| 1787912208 | 23.33° C | 49% | 1011.9 hPa | - | - | - | - |
* Rain since midnight (hover to see other rain measurements)
** Current wind speed in m/s (hover to see current wind gust speed)